Obelix — 7JAX — position and weather

sailwx.info

Track history (hours):
 
Tides and Currents Weather Stations Pressure Air Temp Water Temp Dewpoint Dewpoint Depression Visibility Wind Speed Wind Dir Waves Ship Positions

Obelix

Last reported at 2015-May-24 08:28 UTC. Time now 2015-May-26 05:44 UTC.
Position N 34°06' E 134°46'.

Length 74 m; draft 4.5 m.

Type: Ship (hazmat cat D). MMSI: 432528000.

Date/timePositionNaut miles runAvg speedWind from/ knotsBaromVisibWave heightAir tempDewpointWater temp
2015-May-24 08:28N 34°06' E 134°46'1212.1
2015-May-24 07:30N 33°57' E 134°55'23610.8
2015-May-23 09:33N 35°02' E 139°30'1211.6
2015-May-23 08:33N 35°08' E 139°42'1010.2
2015-May-23 07:34N 35°18' E 139°44'10 9.7
2015-May-23 06:34N 35°27' E 139°47'1111.0
2015-May-23 05:33N 35°32' E 139°59'3 3.3
2015-May-23 04:33N 35°32' E 140°03'0 0.0
2015-May-23 03:27N 35°32' E 140°03'0 0.0
2015-May-23 02:30N 35°32' E 140°03'0 0.0
2015-May-23 01:21N 35°32' E 140°03'0 0.2
2015-May-23 00:33N 35°32' E 140°03'7 7.3
2015-May-22 23:33N 35°31' E 139°54'3 3.1
2015-May-22 22:28N 35°30' E 139°50'0 0.1
2015-May-22 21:31N 35°30' E 139°50'0 0.0
2015-May-22 20:31N 35°30' E 139°50'0 0.0
2015-May-22 19:31N 35°30' E 139°50'0 0.0
2015-May-22 18:31N 35°30' E 139°50'0 0.0
2015-May-22 17:31N 35°30' E 139°50'0 0.0
2015-May-22 16:31N 35°30' E 139°50'0 0.0
2015-May-22 15:31N 35°30' E 139°50'0 0.0
2015-May-22 14:31N 35°30' E 139°50'0 0.0
2015-May-22 13:28N 35°30' E 139°50'0 0.0
2015-May-22 12:33N 35°30' E 139°50'1010.2
2015-May-22 11:33N 35°21' E 139°45'1212.2
2015-May-22 10:33N 35°09' E 139°46'2712.8
2015-May-22 08:28N 34°51' E 139°21'22310.6
2015-May-21 11:23N 34°02' E 134°58'1112.8
2015-May-21 10:33N 34°13' E 134°58'1212.1
2015-May-21 09:32N 34°25' E 135°01'1111.4
2015-May-21 08:33N 34°36' E 135°02'1312.7
2015-May-21 07:33N 34°41' E 134°48'0 0.0
2015-May-20 08:18N 34°41' E 134°48'7 9.2
2015-May-20 07:33N 34°37' E 134°55'9 8.5
2015-May-20 06:33N 34°35' E 135°05'1111.1
2015-May-20 05:34N 34°34' E 135°19'6 4.9
2015-May-20 04:23N 34°33' E 135°25'0 0.0
2015-May-20 03:29N 34°33' E 135°25'0 0.0
2015-May-20 02:23N 34°33' E 135°25'0 0.0
2015-May-20 01:17N 34°33' E 135°25'0 0.0
2015-May-20 00:29N 34°33' E 135°25'4 4.4
2015-May-19 23:28N 34°32' E 135°20'0 0.0
2015-May-19 22:10N 34°32' E 135°20'0 0.0
2015-May-19 21:28N 34°32' E 135°20'0 0.0
2015-May-19 20:28N 34°32' E 135°20'0 0.0
2015-May-19 19:28N 34°32' E 135°20'0 0.0
2015-May-19 18:22N 34°32' E 135°20'0 0.0
2015-May-19 17:28N 34°32' E 135°20'0 0.0
2015-May-19 16:16N 34°32' E 135°20'0 0.0
2015-May-19 15:28N 34°32' E 135°20'0 0.0
2015-May-19 14:10N 34°32' E 135°20'0 0.0
2015-May-19 13:04N 34°32' E 135°20'0 0.0
2015-May-19 11:22N 34°32' E 135°20'0 0.0
2015-May-19 10:28N 34°32' E 135°20'3 2.8
2015-May-19 09:33N 34°32' E 135°17'1313.0
2015-May-19 08:33N 34°36' E 135°02'1211.8
2015-May-19 07:33N 34°40' E 134°48'1 0.1
2015-May-18 12:32N 34°41' E 134°47'1313.1
2015-May-18 11:32N 34°37' E 135°02'9 8.8
2015-May-18 10:33N 34°28' E 135°04'1311.6
2015-May-18 09:28N 34°16' E 134°59'1212.7
2015-May-18 08:33N 34°05' E 135°00'24310.1
2015-May-17 08:33N 35°10' E 139°45'1111.3
2015-May-17 07:33N 35°21' E 139°42'10 9.7
2015-May-17 06:33N 35°31' E 139°46'1 0.6
2015-May-17 05:31N 35°31' E 139°46'0 0.0
2015-May-17 04:31N 35°31' E 139°46'0 0.0
2015-May-17 03:31N 35°31' E 139°46'0 0.0
2015-May-17 02:28N 35°31' E 139°46'0 0.0
2015-May-17 01:31N 35°31' E 139°46'0 0.0
2015-May-17 00:32N 35°31' E 139°46'5 4.9
2015-May-16 23:33N 35°27' E 139°43'1 1.1
2015-May-16 22:32N 35°28' E 139°44'0 0.0
2015-May-16 21:32N 35°28' E 139°44'0 0.0
2015-May-16 20:32N 35°28' E 139°44'0 0.0
2015-May-16 19:32N 35°28' E 139°44'0 0.0
2015-May-16 18:32N 35°28' E 139°44'0 0.1
2015-May-16 17:32N 35°28' E 139°44'0 0.0
2015-May-16 16:29N 35°28' E 139°44'0 0.0
2015-May-16 15:32N 35°28' E 139°44'0 0.1
2015-May-16 14:32N 35°28' E 139°44'0 0.0
2015-May-16 13:32N 35°28' E 139°44'0 0.2
2015-May-16 12:33N 35°28' E 139°44'10 9.6
2015-May-16 11:33N 35°18' E 139°45'1111.4
2015-May-16 10:33N 35°07' E 139°45'25310.8
2015-May-15 11:13N 34°04' E 134°47'3311.2
2015-May-15 08:15N 34°38' E 134°46'6 0.3
2015-May-14 11:21N 34°37' E 134°39'  
Track history (hours):
 
Tides and Currents Weather Stations Pressure Air Temp Water Temp Dewpoint Dewpoint Depression Visibility Wind Speed Wind Dir Waves Ship Positions

Obelix

Last reported at 2015-May-24 08:28 UTC. Time now 2015-May-26 05:44 UTC.
Position N 34°06' E 134°46'.

Length 74 m; draft 4.5 m.

Type: Ship (hazmat cat D). MMSI: 432528000.

Date/timePositionNaut miles runAvg speedWind from/ knotsBaromVisibWave heightAir tempDewpointWater temp
2015-May-24 08:28N 34°06' E 134°46'1212.1
2015-May-24 07:30N 33°57' E 134°55'23610.8
2015-May-23 09:33N 35°02' E 139°30'1211.6
2015-May-23 08:33N 35°08' E 139°42'1010.2
2015-May-23 07:34N 35°18' E 139°44'10 9.7
2015-May-23 06:34N 35°27' E 139°47'1111.0
2015-May-23 05:33N 35°32' E 139°59'3 3.3
2015-May-23 04:33N 35°32' E 140°03'0 0.0
2015-May-23 03:27N 35°32' E 140°03'0 0.0
2015-May-23 02:30N 35°32' E 140°03'0 0.0
2015-May-23 01:21N 35°32' E 140°03'0 0.2
2015-May-23 00:33N 35°32' E 140°03'7 7.3
2015-May-22 23:33N 35°31' E 139°54'3 3.1
2015-May-22 22:28N 35°30' E 139°50'0 0.1
2015-May-22 21:31N 35°30' E 139°50'0 0.0
2015-May-22 20:31N 35°30' E 139°50'0 0.0
2015-May-22 19:31N 35°30' E 139°50'0 0.0
2015-May-22 18:31N 35°30' E 139°50'0 0.0
2015-May-22 17:31N 35°30' E 139°50'0 0.0
2015-May-22 16:31N 35°30' E 139°50'0 0.0
2015-May-22 15:31N 35°30' E 139°50'0 0.0
2015-May-22 14:31N 35°30' E 139°50'0 0.0
2015-May-22 13:28N 35°30' E 139°50'0 0.0
2015-May-22 12:33N 35°30' E 139°50'1010.2
2015-May-22 11:33N 35°21' E 139°45'1212.2
2015-May-22 10:33N 35°09' E 139°46'2712.8
2015-May-22 08:28N 34°51' E 139°21'22310.6
2015-May-21 11:23N 34°02' E 134°58'1112.8
2015-May-21 10:33N 34°13' E 134°58'1212.1
2015-May-21 09:32N 34°25' E 135°01'1111.4
2015-May-21 08:33N 34°36' E 135°02'1312.7
2015-May-21 07:33N 34°41' E 134°48'0 0.0
2015-May-20 08:18N 34°41' E 134°48'7 9.2
2015-May-20 07:33N 34°37' E 134°55'9 8.5
2015-May-20 06:33N 34°35' E 135°05'1111.1
2015-May-20 05:34N 34°34' E 135°19'6 4.9
2015-May-20 04:23N 34°33' E 135°25'0 0.0
2015-May-20 03:29N 34°33' E 135°25'0 0.0
2015-May-20 02:23N 34°33' E 135°25'0 0.0
2015-May-20 01:17N 34°33' E 135°25'0 0.0
2015-May-20 00:29N 34°33' E 135°25'4 4.4
2015-May-19 23:28N 34°32' E 135°20'0 0.0
2015-May-19 22:10N 34°32' E 135°20'0 0.0
2015-May-19 21:28N 34°32' E 135°20'0 0.0
2015-May-19 20:28N 34°32' E 135°20'0 0.0
2015-May-19 19:28N 34°32' E 135°20'0 0.0
2015-May-19 18:22N 34°32' E 135°20'0 0.0
2015-May-19 17:28N 34°32' E 135°20'0 0.0
2015-May-19 16:16N 34°32' E 135°20'0 0.0
2015-May-19 15:28N 34°32' E 135°20'0 0.0
2015-May-19 14:10N 34°32' E 135°20'0 0.0
2015-May-19 13:04N 34°32' E 135°20'0 0.0
2015-May-19 11:22N 34°32' E 135°20'0 0.0
2015-May-19 10:28N 34°32' E 135°20'3 2.8
2015-May-19 09:33N 34°32' E 135°17'1313.0
2015-May-19 08:33N 34°36' E 135°02'1211.8
2015-May-19 07:33N 34°40' E 134°48'1 0.1
2015-May-18 12:32N 34°41' E 134°47'1313.1
2015-May-18 11:32N 34°37' E 135°02'9 8.8
2015-May-18 10:33N 34°28' E 135°04'1311.6
2015-May-18 09:28N 34°16' E 134°59'1212.7
2015-May-18 08:33N 34°05' E 135°00'24310.1
2015-May-17 08:33N 35°10' E 139°45'1111.3
2015-May-17 07:33N 35°21' E 139°42'10 9.7
2015-May-17 06:33N 35°31' E 139°46'1 0.6
2015-May-17 05:31N 35°31' E 139°46'0 0.0
2015-May-17 04:31N 35°31' E 139°46'0 0.0
2015-May-17 03:31N 35°31' E 139°46'0 0.0
2015-May-17 02:28N 35°31' E 139°46'0 0.0
2015-May-17 01:31N 35°31' E 139°46'0 0.0
2015-May-17 00:32N 35°31' E 139°46'5 4.9
2015-May-16 23:33N 35°27' E 139°43'1 1.1
2015-May-16 22:32N 35°28' E 139°44'0 0.0
2015-May-16 21:32N 35°28' E 139°44'0 0.0
2015-May-16 20:32N 35°28' E 139°44'0 0.0
2015-May-16 19:32N 35°28' E 139°44'0 0.0
2015-May-16 18:32N 35°28' E 139°44'0 0.1
2015-May-16 17:32N 35°28' E 139°44'0 0.0
2015-May-16 16:29N 35°28' E 139°44'0 0.0
2015-May-16 15:32N 35°28' E 139°44'0 0.1
2015-May-16 14:32N 35°28' E 139°44'0 0.0
2015-May-16 13:32N 35°28' E 139°44'0 0.2
2015-May-16 12:33N 35°28' E 139°44'10 9.6
2015-May-16 11:33N 35°18' E 139°45'1111.4
2015-May-16 10:33N 35°07' E 139°45'25310.8
2015-May-15 11:13N 34°04' E 134°47'3311.2
2015-May-15 08:15N 34°38' E 134°46'6 0.3
2015-May-14 11:21N 34°37' E 134°39'  

Dump ship's entire track history